createdAt,value
2023-05-16T00:02:08.899Z,8.40
2023-05-16T00:04:38.929Z,7.30
2023-05-16T00:07:07.195Z,7.43
2023-05-16T00:09:35.338Z,7.28
2023-05-16T00:12:03.524Z,6.30
2023-05-16T00:14:31.718Z,6.85
2023-05-16T00:17:01.140Z,7.33
2023-05-16T00:19:30.034Z,6.00
2023-05-16T00:21:59.462Z,6.47
2023-05-16T00:24:27.856Z,6.20
2023-05-16T00:26:56.003Z,6.70
2023-05-16T00:29:24.428Z,6.43
2023-05-16T00:31:52.775Z,6.25
2023-05-16T00:34:22.798Z,7.53
2023-05-16T00:36:52.962Z,7.43
2023-05-16T00:39:22.464Z,6.72
2023-05-16T00:41:50.889Z,7.53
2023-05-16T00:44:19.309Z,6.83
2023-05-16T00:46:47.708Z,7.03
2023-05-16T00:49:16.141Z,6.80
2023-05-16T00:51:44.478Z,7.27
2023-05-16T00:54:13.427Z,6.53
2023-05-16T00:56:43.205Z,6.30
2023-05-16T00:59:12.150Z,6.97
2023-05-16T01:01:42.393Z,6.73
2023-05-16T01:04:10.950Z,6.00
2023-05-16T01:06:39.228Z,6.63
2023-05-16T01:09:08.167Z,6.73
2023-05-16T01:11:51.971Z,6.53
2023-05-16T01:14:39.629Z,6.90
2023-05-16T01:17:19.115Z,6.80
2023-05-16T01:20:11.253Z,6.77
2023-05-16T01:23:02.775Z,6.43
2023-05-16T01:25:46.793Z,7.13
2023-05-16T01:28:18.385Z,7.20
2023-05-16T01:30:46.836Z,6.50
2023-05-16T01:33:15.033Z,7.27
2023-05-16T01:35:56.680Z,7.50
2023-05-16T01:38:28.441Z,7.13
2023-05-16T01:41:06.792Z,6.00
2023-05-16T01:43:43.617Z,7.67
2023-05-16T01:46:21.600Z,7.17
2023-05-16T01:48:56.831Z,7.03
2023-05-16T01:51:30.769Z,6.27
2023-05-16T01:54:07.519Z,6.53
2023-05-16T01:56:38.852Z,7.00
2023-05-16T01:59:11.241Z,6.90
2023-05-16T02:01:39.520Z,7.20
2023-05-16T02:04:07.820Z,7.40
2023-05-16T02:06:37.097Z,7.13
2023-05-16T02:09:05.257Z,6.57
2023-05-16T02:11:33.413Z,6.57
2023-05-16T02:14:01.490Z,6.73
2023-05-16T02:16:32.082Z,6.30
2023-05-16T02:19:00.256Z,6.70
2023-05-16T02:21:28.460Z,7.17
2023-05-16T02:23:56.520Z,7.67
2023-05-16T02:26:24.615Z,7.13
2023-05-16T02:28:52.749Z,6.50
2023-05-16T02:31:33.017Z,7.60
2023-05-16T02:34:01.906Z,7.17
2023-05-16T02:36:30.818Z,6.97
2023-05-16T02:38:58.930Z,6.87
2023-05-16T02:41:27.033Z,6.70
2023-05-16T02:43:55.190Z,6.37
2023-05-16T02:46:25.812Z,7.27
2023-05-16T02:48:56.016Z,6.40
2023-05-16T02:51:26.955Z,6.50
2023-05-16T02:53:59.763Z,7.43
2023-05-16T02:56:28.542Z,6.87
2023-05-16T02:58:56.954Z,7.23
2023-05-16T03:01:25.507Z,6.93
2023-05-16T03:03:55.249Z,7.93
2023-05-16T03:06:24.556Z,7.35
2023-05-16T03:08:53.241Z,7.50
2023-05-16T03:11:24.037Z,7.23
2023-05-16T03:13:52.193Z,6.67
2023-05-16T03:16:20.503Z,7.93
2023-05-16T03:18:48.714Z,7.20
2023-05-16T03:21:18.245Z,7.30
2023-05-16T03:23:46.486Z,7.93
2023-05-16T03:26:14.688Z,7.33
2023-05-16T03:28:42.788Z,6.77
2023-05-16T03:31:11.050Z,7.10
2023-05-16T03:33:39.417Z,7.40
2023-05-16T03:36:08.564Z,7.63
2023-05-16T03:38:38.504Z,7.07
2023-05-16T03:41:06.765Z,7.70
2023-05-16T03:43:34.874Z,7.17
2023-05-16T03:46:03.216Z,6.87
2023-05-16T03:48:31.460Z,7.53
2023-05-16T03:50:59.556Z,7.07
2023-05-16T03:53:27.733Z,7.17
2023-05-16T03:55:57.202Z,8.73
2023-05-16T03:58:25.501Z,11.57
2023-05-16T04:00:53.614Z,14.63
2023-05-16T04:03:28.138Z,10.77
2023-05-16T04:05:57.216Z,11.13
2023-05-16T04:08:25.703Z,10.27
2023-05-16T04:10:53.823Z,10.80
2023-05-16T04:13:23.430Z,9.93
2023-05-16T04:15:51.690Z,8.20
2023-05-16T04:18:19.985Z,8.70
2023-05-16T04:20:48.562Z,7.70
2023-05-16T04:23:16.660Z,8.00
2023-05-16T04:25:44.875Z,7.23
2023-05-16T04:28:13.478Z,8.23
2023-05-16T04:30:43.050Z,8.73
2023-05-16T04:33:11.853Z,8.00
2023-05-16T04:35:40.253Z,7.70
2023-05-16T04:38:08.556Z,8.00
2023-05-16T04:40:36.677Z,8.53
2023-05-16T04:43:04.822Z,8.00
2023-05-16T04:45:33.854Z,8.93
2023-05-16T04:48:05.119Z,8.65
2023-05-16T04:50:33.424Z,8.93
2023-05-16T04:53:01.726Z,8.30
2023-05-16T04:55:30.160Z,9.63
2023-05-16T04:57:58.646Z,10.00
2023-05-16T05:00:27.104Z,10.20
2023-05-16T05:02:55.596Z,10.67
2023-05-16T05:05:25.465Z,11.27
2023-05-16T05:07:54.138Z,8.95
2023-05-16T05:10:22.443Z,9.33
2023-05-16T05:12:50.734Z,8.67
2023-05-16T05:15:19.124Z,10.13
2023-05-16T05:17:47.412Z,11.63
2023-05-16T05:20:15.882Z,11.05
2023-05-16T05:22:45.368Z,11.15
2023-05-16T05:25:13.964Z,11.52
2023-05-16T05:27:42.355Z,11.70
2023-05-16T05:30:11.619Z,11.05
2023-05-16T05:32:40.037Z,11.35
2023-05-16T05:35:08.882Z,11.70
2023-05-16T05:37:37.079Z,11.50
2023-05-16T05:40:08.790Z,12.32
2023-05-16T05:42:36.881Z,12.43
2023-05-16T05:45:06.408Z,12.05
2023-05-16T05:47:34.767Z,10.93
2023-05-16T05:50:04.680Z,12.25
2023-05-16T05:52:33.158Z,12.25
2023-05-16T05:55:01.291Z,11.07
2023-05-16T05:57:30.919Z,11.93
2023-05-16T05:59:59.134Z,11.68
2023-05-16T06:02:27.958Z,11.95
2023-05-16T06:04:56.234Z,11.98
2023-05-16T06:07:24.352Z,11.45
2023-05-16T06:09:52.486Z,12.20
2023-05-16T06:12:20.630Z,12.63
2023-05-16T06:14:50.128Z,12.00
2023-05-16T06:17:18.366Z,12.45
2023-05-16T06:19:47.008Z,12.32
2023-05-16T06:22:15.159Z,12.50
2023-05-16T06:24:43.230Z,11.73
2023-05-16T06:27:11.701Z,11.77
2023-05-16T06:29:39.774Z,11.93
2023-05-16T06:32:11.740Z,11.02
2023-05-16T06:34:44.447Z,11.45
2023-05-16T06:37:12.530Z,12.00
2023-05-16T06:39:40.639Z,11.80
2023-05-16T06:42:08.825Z,11.77
2023-05-16T06:44:38.992Z,10.57
2023-05-16T06:47:08.786Z,11.48
2023-05-16T06:49:37.040Z,11.07
2023-05-16T06:52:06.103Z,9.80
2023-05-16T06:54:35.115Z,10.73
2023-05-16T06:57:03.950Z,10.25
2023-05-16T06:59:32.596Z,9.40
2023-05-16T07:02:01.006Z,9.50
2023-05-16T07:04:30.692Z,8.65
2023-05-16T07:06:59.003Z,8.25
2023-05-16T07:09:27.143Z,8.57
2023-05-16T07:11:55.420Z,8.35
2023-05-16T07:14:23.569Z,8.10
2023-05-16T07:16:51.769Z,7.63
2023-05-16T07:19:20.126Z,7.60
2023-05-16T07:21:49.879Z,8.15
2023-05-16T07:24:18.024Z,8.20
2023-05-16T07:26:46.307Z,6.93
2023-05-16T07:29:14.527Z,7.15
2023-05-16T07:31:45.647Z,7.55
2023-05-16T07:34:16.137Z,7.70
2023-05-16T07:36:44.377Z,7.78
2023-05-16T07:39:14.599Z,7.28
2023-05-16T07:41:42.738Z,7.07
2023-05-16T07:44:10.996Z,7.40
2023-05-16T07:46:39.604Z,6.80
2023-05-16T07:49:07.998Z,7.70
2023-05-16T07:51:36.572Z,7.60
2023-05-16T07:54:05.004Z,8.18
2023-05-16T07:56:34.917Z,7.70
2023-05-16T07:59:03.300Z,7.30
2023-05-16T08:01:31.603Z,8.05
2023-05-16T08:03:59.947Z,8.23
2023-05-16T08:06:28.126Z,7.90
2023-05-16T08:08:56.385Z,7.30
2023-05-16T08:11:24.603Z,6.18
2023-05-16T08:13:54.257Z,6.70
2023-05-16T08:16:22.411Z,7.20
2023-05-16T08:18:50.899Z,7.18
2023-05-16T08:21:19.255Z,6.68
2023-05-16T08:23:47.463Z,7.10
2023-05-16T08:26:16.351Z,6.70
2023-05-16T08:28:44.559Z,5.60
2023-05-16T08:31:16.554Z,6.95
2023-05-16T08:33:44.894Z,6.72
2023-05-16T08:36:13.109Z,6.63
2023-05-16T08:38:41.284Z,7.45
2023-05-16T08:41:09.584Z,6.32
2023-05-16T08:43:37.802Z,6.40
2023-05-16T08:46:08.298Z,7.28
2023-05-16T08:48:39.666Z,7.55
2023-05-16T08:51:10.806Z,7.63
2023-05-16T08:53:46.431Z,6.35
2023-05-16T08:56:17.272Z,7.07
2023-05-16T08:58:46.487Z,7.60
2023-05-16T09:01:15.219Z,7.43
2023-05-16T09:03:45.658Z,6.47
2023-05-16T09:06:14.260Z,6.50
2023-05-16T09:08:43.130Z,6.25
2023-05-16T09:11:11.578Z,5.90
2023-05-16T09:13:40.767Z,5.20
2023-05-16T09:16:14.611Z,5.20
2023-05-16T09:18:47.981Z,4.53
2023-05-16T09:21:17.125Z,4.80
2023-05-16T09:23:46.512Z,4.55
2023-05-16T09:26:14.882Z,5.10
2023-05-16T09:28:44.433Z,5.40
2023-05-16T09:31:24.933Z,5.45
2023-05-16T09:33:55.195Z,5.75
2023-05-16T09:36:23.513Z,4.95
2023-05-16T09:38:52.719Z,4.13
2023-05-16T09:41:22.985Z,4.97
2023-05-16T09:43:51.532Z,4.07
2023-05-16T09:46:20.400Z,4.20
2023-05-16T09:48:49.366Z,5.15
2023-05-16T09:51:24.064Z,5.25
2023-05-16T09:53:53.416Z,7.60
2023-05-16T09:56:21.653Z,8.20
2023-05-16T09:58:53.229Z,8.90
2023-05-16T10:01:22.400Z,8.70
2023-05-16T10:03:51.946Z,8.95
2023-05-16T10:06:22.839Z,9.27
2023-05-16T10:08:52.353Z,9.98
2023-05-16T10:11:21.650Z,9.32
2023-05-16T10:13:53.815Z,9.75
2023-05-16T10:16:24.964Z,10.05
2023-05-16T10:18:54.690Z,9.48
2023-05-16T10:21:27.373Z,8.80
2023-05-16T10:24:00.368Z,8.63
2023-05-16T10:26:29.186Z,8.25
2023-05-16T10:28:57.915Z,8.43
2023-05-16T10:31:30.112Z,7.93
2023-05-16T10:33:58.789Z,7.63
2023-05-16T10:36:28.915Z,7.88
2023-05-16T10:38:58.295Z,7.30
2023-05-16T10:41:27.492Z,7.55
2023-05-16T10:44:01.182Z,6.47
2023-05-16T10:46:30.284Z,5.43
2023-05-16T10:48:58.950Z,6.60
2023-05-16T10:51:39.535Z,5.53
2023-05-16T10:54:12.758Z,6.03
2023-05-16T10:56:41.420Z,5.65
2023-05-16T10:59:26.498Z,6.15
2023-05-16T11:01:56.703Z,6.00
2023-05-16T11:04:25.324Z,6.18
2023-05-16T11:06:59.887Z,5.82
2023-05-16T11:09:28.782Z,6.60
2023-05-16T11:12:02.924Z,6.25
2023-05-16T11:14:39.182Z,6.25
2023-05-16T11:17:13.613Z,5.97
2023-05-16T11:19:45.853Z,5.03
2023-05-16T11:22:27.434Z,5.40
2023-05-16T11:25:00.336Z,5.30
2023-05-16T11:27:31.404Z,4.95
2023-05-16T11:30:14.349Z,4.93
2023-05-16T11:32:44.950Z,4.82
2023-05-16T11:35:15.367Z,4.70
2023-05-16T11:37:46.884Z,4.78
2023-05-16T11:40:17.363Z,5.75
2023-05-16T11:42:47.690Z,5.97
2023-05-16T11:45:18.181Z,6.35
2023-05-16T11:47:48.571Z,5.80
2023-05-16T11:50:19.177Z,5.10
2023-05-16T11:52:53.698Z,4.93
2023-05-16T11:55:40.567Z,5.10
2023-05-16T11:58:10.167Z,4.28
2023-05-16T12:00:38.499Z,4.68
2023-05-16T12:03:08.186Z,5.30
2023-05-16T12:05:36.634Z,4.88
2023-05-16T12:08:07.175Z,5.20
2023-05-16T12:10:35.770Z,4.78
2023-05-16T12:13:05.178Z,4.78
2023-05-16T12:15:34.357Z,4.95
2023-05-16T12:18:03.539Z,4.40
2023-05-16T12:20:31.986Z,5.07
2023-05-16T12:23:00.371Z,4.78
2023-05-16T12:25:32.939Z,4.95
2023-05-16T12:28:03.585Z,4.80
2023-05-16T12:30:33.574Z,4.30
2023-05-16T12:33:07.703Z,4.13
2023-05-16T12:35:40.158Z,3.78
2023-05-16T12:38:10.543Z,3.80
2023-05-16T12:40:42.489Z,4.10
2023-05-16T12:43:15.719Z,3.65
2023-05-16T12:45:50.309Z,3.83
2023-05-16T12:48:18.691Z,3.72
2023-05-16T12:50:47.315Z,4.00
2023-05-16T12:53:17.951Z,4.40
2023-05-16T12:55:47.954Z,4.30
2023-05-16T12:58:16.405Z,3.67
2023-05-16T13:00:44.744Z,4.55
2023-05-16T13:03:13.066Z,3.65
2023-05-16T13:05:41.564Z,4.70
2023-05-16T13:08:09.743Z,4.45
2023-05-16T13:10:37.948Z,3.83
2023-05-16T13:13:07.485Z,4.18
2023-05-16T13:15:35.918Z,4.10
2023-05-16T13:18:04.442Z,3.65
2023-05-16T13:20:32.749Z,4.15
2023-05-16T13:23:01.020Z,3.92
2023-05-16T13:25:29.628Z,4.00
2023-05-16T13:27:58.093Z,4.38
2023-05-16T13:30:29.014Z,3.75
2023-05-16T13:32:57.331Z,4.05
2023-05-16T13:35:26.609Z,3.90
2023-05-16T13:37:55.052Z,3.78
2023-05-16T13:40:23.517Z,3.72
2023-05-16T13:42:51.707Z,3.88
2023-05-16T13:45:20.209Z,3.95
2023-05-16T13:47:49.992Z,4.50
2023-05-16T13:50:18.493Z,4.13
2023-05-16T13:52:47.508Z,3.80
2023-05-16T13:55:16.118Z,3.42
2023-05-16T13:57:44.517Z,3.90
2023-05-16T14:02:45.233Z,4.00
2023-05-16T14:05:15.016Z,3.08
2023-05-16T14:07:45.361Z,3.40
2023-05-16T14:10:15.164Z,3.03
2023-05-16T14:12:43.667Z,3.13
2023-05-16T14:15:12.210Z,3.00
2023-05-16T14:17:40.634Z,3.50
2023-05-16T14:20:10.649Z,3.22
2023-05-16T14:22:40.305Z,3.10
2023-05-16T14:25:09.801Z,2.67
2023-05-16T14:27:38.324Z,2.55
2023-05-16T14:30:09.551Z,2.45
2023-05-16T14:32:37.902Z,2.70
2023-05-16T14:35:07.070Z,2.63
2023-05-16T14:37:35.293Z,2.63
2023-05-16T14:40:06.382Z,2.00
2023-05-16T14:42:34.581Z,2.25
2023-05-16T14:45:03.185Z,2.30
2023-05-16T14:47:31.750Z,2.05
2023-05-16T14:50:01.090Z,2.17
2023-05-16T14:52:29.328Z,2.00
2023-05-16T14:54:57.549Z,1.92
2023-05-16T14:57:27.149Z,1.70
2023-05-16T14:59:55.529Z,1.63
2023-05-16T15:02:23.835Z,2.17
2023-05-16T15:04:54.140Z,1.73
2023-05-16T15:07:22.490Z,2.03
2023-05-16T15:09:50.746Z,1.90
2023-05-16T15:12:18.973Z,1.70
2023-05-16T15:14:48.508Z,2.13
2023-05-16T15:17:24.064Z,1.92
2023-05-16T15:19:54.189Z,1.90
2023-05-16T15:22:22.382Z,1.80
2023-05-16T15:24:50.574Z,1.52
2023-05-16T15:27:18.734Z,2.35
2023-05-16T15:29:48.257Z,1.63
2023-05-16T15:32:18.313Z,2.13
2023-05-16T15:34:46.768Z,2.10
2023-05-16T15:37:15.083Z,1.85
2023-05-16T15:39:43.508Z,1.80
2023-05-16T15:42:12.547Z,1.75
2023-05-16T15:44:41.147Z,2.22
2023-05-16T15:47:10.772Z,2.15
2023-05-16T15:49:39.003Z,1.70
2023-05-16T15:52:07.412Z,2.20
2023-05-16T15:54:36.786Z,1.85
2023-05-16T15:57:05.480Z,1.73
2023-05-16T16:04:27.384Z,1.73
2023-05-16T16:06:56.144Z,1.88
2023-05-16T16:09:24.540Z,1.60
2023-05-16T16:11:56.214Z,1.70
2023-05-16T16:14:25.470Z,1.80
2023-05-16T16:16:53.722Z,1.88
2023-05-16T16:19:22.187Z,1.70
2023-05-16T16:21:52.072Z,1.90
2023-05-16T16:24:21.105Z,2.30
2023-05-16T16:26:49.308Z,1.63
2023-05-16T16:29:17.594Z,2.03
2023-05-16T16:31:45.826Z,1.88
2023-05-16T16:34:14.088Z,2.08
2023-05-16T16:36:42.328Z,1.83
2023-05-16T16:39:11.863Z,2.00
2023-05-16T16:41:40.294Z,1.83
2023-05-16T16:44:08.490Z,1.85
2023-05-16T16:46:36.729Z,1.77
2023-05-16T16:49:09.644Z,1.80
2023-05-16T16:51:37.851Z,1.65
2023-05-16T16:54:06.135Z,2.40
2023-05-16T16:56:36.099Z,2.28
2023-05-16T16:59:04.287Z,2.03
2023-05-16T17:01:32.858Z,1.90
2023-05-16T17:04:02.099Z,1.70
2023-05-16T17:06:30.785Z,1.70
2023-05-16T17:09:02.420Z,2.00
2023-05-16T17:11:30.949Z,1.85
2023-05-16T17:14:00.967Z,1.90
2023-05-16T17:16:29.650Z,1.60
2023-05-16T17:18:57.996Z,1.70
2023-05-16T17:21:26.703Z,1.63
2023-05-16T17:23:55.189Z,1.70
2023-05-16T17:26:23.337Z,1.42
2023-05-16T17:28:51.700Z,1.52
2023-05-16T17:31:21.603Z,1.80
2023-05-16T17:33:49.831Z,1.90
2023-05-16T17:36:18.146Z,1.30
2023-05-16T17:38:46.507Z,1.50
2023-05-16T17:41:15.007Z,1.17
2023-05-16T17:43:45.360Z,1.80
2023-05-16T17:46:14.415Z,1.60
2023-05-16T17:48:44.899Z,1.42
2023-05-16T17:51:13.242Z,1.63
2023-05-16T17:53:41.693Z,1.15
2023-05-16T17:56:10.082Z,2.28
2023-05-16T17:58:39.178Z,1.70
2023-05-16T18:01:09.254Z,1.48
2023-05-16T18:03:38.648Z,1.42
2023-05-16T18:06:09.295Z,1.50
2023-05-16T18:08:37.670Z,1.58
2023-05-16T18:11:06.170Z,1.65
2023-05-16T18:13:34.542Z,1.55
2023-05-16T18:16:03.788Z,1.30
2023-05-16T18:18:32.081Z,1.55
2023-05-16T18:21:00.446Z,1.45
2023-05-16T18:23:30.188Z,1.52
2023-05-16T18:25:58.563Z,1.45
2023-05-16T18:28:26.986Z,2.30
2023-05-16T18:30:56.476Z,1.77
2023-05-16T18:33:24.926Z,1.48
2023-05-16T18:35:53.165Z,1.63
2023-05-16T18:38:32.158Z,1.50
2023-05-16T18:41:03.343Z,1.63
2023-05-16T18:43:35.154Z,1.58
2023-05-16T18:46:03.985Z,1.52
2023-05-16T18:48:34.685Z,1.75
2023-05-16T18:51:04.911Z,1.88
2023-05-16T18:53:33.244Z,1.77
2023-05-16T18:56:02.989Z,1.52
2023-05-16T18:58:31.544Z,1.77
2023-05-16T19:00:59.824Z,1.85
2023-05-16T19:03:28.258Z,1.98
2023-05-16T19:05:56.778Z,3.33
2023-05-16T19:08:27.170Z,2.35
2023-05-16T19:10:59.646Z,2.20
2023-05-16T19:13:32.114Z,1.70
2023-05-16T19:16:00.400Z,2.00
2023-05-16T19:18:29.196Z,2.08
2023-05-16T19:20:57.704Z,2.08
2023-05-16T19:23:26.179Z,1.55
2023-05-16T19:25:54.620Z,1.83
2023-05-16T19:28:24.499Z,1.63
2023-05-16T19:30:54.206Z,1.85
2023-05-16T19:33:22.469Z,2.35
2023-05-16T19:35:51.602Z,1.70
2023-05-16T19:38:20.561Z,1.30
2023-05-16T19:40:48.975Z,1.70
2023-05-16T19:43:17.395Z,1.67
2023-05-16T19:45:45.809Z,2.28
2023-05-16T19:48:15.493Z,1.67
2023-05-16T19:50:43.888Z,1.80
2023-05-16T19:53:12.167Z,2.15
2023-05-16T19:55:40.662Z,2.28
2023-05-16T19:58:08.968Z,2.35
2023-05-16T20:00:37.282Z,1.80
2023-05-16T20:03:05.543Z,2.47
2023-05-16T20:05:35.232Z,2.63
2023-05-16T20:08:03.480Z,2.58
2023-05-16T20:10:31.702Z,2.13
2023-05-16T20:12:59.944Z,2.28
2023-05-16T20:15:28.510Z,2.10
2023-05-16T20:17:57.104Z,2.42
2023-05-16T20:20:25.373Z,2.30
2023-05-16T20:22:54.938Z,1.90
2023-05-16T20:25:23.322Z,1.88
2023-05-16T20:27:51.645Z,1.73
2023-05-16T20:30:19.950Z,1.80
2023-05-16T20:32:48.293Z,2.30
2023-05-16T20:35:16.768Z,2.27
2023-05-16T20:37:45.187Z,2.13
2023-05-16T20:40:15.114Z,1.70
2023-05-16T20:42:45.478Z,2.30
2023-05-16T20:45:13.882Z,1.90
2023-05-16T20:47:42.172Z,1.73
2023-05-16T20:50:11.612Z,1.50
2023-05-16T20:52:39.889Z,1.87
2023-05-16T20:55:09.109Z,2.20
2023-05-16T20:57:38.726Z,1.80
2023-05-16T21:00:08.921Z,1.60
2023-05-16T21:02:37.162Z,1.90
2023-05-16T21:05:23.220Z,1.80
2023-05-16T21:07:52.961Z,1.80
2023-05-16T21:10:21.415Z,1.83
2023-05-16T21:12:51.168Z,1.80
2023-05-16T21:15:21.603Z,2.20
2023-05-16T21:17:51.297Z,2.13
2023-05-16T21:20:19.682Z,1.50
2023-05-16T21:22:47.852Z,1.83
2023-05-16T21:25:16.033Z,1.70
2023-05-16T21:27:44.242Z,1.90
2023-05-16T21:30:15.431Z,2.10
2023-05-16T21:32:43.599Z,2.10
2023-05-16T21:35:11.853Z,2.33
2023-05-16T21:37:40.712Z,2.07
2023-05-16T21:40:10.349Z,1.80
2023-05-16T21:42:38.513Z,1.83
2023-05-16T21:45:12.435Z,1.90
2023-05-16T21:47:42.048Z,2.17
2023-05-16T21:50:11.426Z,1.87
2023-05-16T21:52:39.840Z,1.60
2023-05-16T21:55:09.762Z,1.83
2023-05-16T21:57:37.955Z,2.00
2023-05-16T22:00:09.715Z,2.50
2023-05-16T22:02:38.308Z,1.87
2023-05-16T22:05:09.507Z,2.47
2023-05-16T22:07:38.344Z,1.67
2023-05-16T22:10:08.326Z,1.50
2023-05-16T22:12:36.520Z,1.60
2023-05-16T22:15:05.718Z,1.50
2023-05-16T22:17:34.074Z,1.50
2023-05-16T22:20:02.490Z,1.23
2023-05-16T22:22:32.170Z,1.50
2023-05-16T22:25:00.627Z,0.90
2023-05-16T22:27:28.829Z,1.07
2023-05-16T22:29:57.061Z,1.60
2023-05-16T22:32:25.347Z,1.10
2023-05-16T22:34:53.995Z,1.00
2023-05-16T22:37:22.249Z,1.20
2023-05-16T22:39:53.148Z,1.17
2023-05-16T22:42:21.329Z,1.40
2023-05-16T22:44:50.092Z,1.37
2023-05-16T22:47:18.452Z,1.30
2023-05-16T22:49:46.651Z,1.20
2023-05-16T22:52:14.858Z,1.10
2023-05-16T22:54:43.042Z,1.20
2023-05-16T22:57:12.562Z,0.50
2023-05-16T22:59:40.775Z,0.90
2023-05-16T23:02:08.937Z,1.10
2023-05-16T23:04:37.209Z,0.87
2023-05-16T23:07:05.828Z,1.17
2023-05-16T23:09:34.162Z,1.40
2023-05-16T23:12:02.609Z,1.13
2023-05-16T23:14:32.194Z,1.03
2023-05-16T23:17:00.383Z,1.33
2023-05-16T23:19:28.700Z,0.83
2023-05-16T23:21:56.919Z,0.90
2023-05-16T23:24:25.209Z,0.80
2023-05-16T23:26:53.397Z,0.87
2023-05-16T23:29:21.667Z,0.80
2023-05-16T23:31:51.233Z,0.80
2023-05-16T23:34:19.413Z,1.20
2023-05-16T23:36:47.639Z,1.00
2023-05-16T23:39:15.908Z,1.00
2023-05-16T23:41:44.058Z,0.70
2023-05-16T23:44:12.200Z,1.40
2023-05-16T23:46:40.398Z,1.07
2023-05-16T23:49:09.870Z,1.10
2023-05-16T23:51:55.532Z,1.03
2023-05-16T23:54:25.450Z,0.70
2023-05-16T23:56:53.769Z,1.10
2023-05-16T23:59:22.186Z,1.57
